SUR4015 SACO-SAAR
Flight info
| Callsign | SUR4015 |
|---|---|
| Flight time | N/A |
| Altitude | 17000 |
| Route | UTRAX W24 MJZ W55 GEDUK |
| Aircraft | AT76/M-SDE3FGHIRWY/LB1 |
Departure
| Time | 2026-05-09 02:12 |
|---|---|
| Airport | Ingeniero Aeronáutico Ambrosio L.V. Taravella International Airport (SACO) |
Arrival
| Time | N/A |
|---|---|
| Airport | Rosario Islas Malvinas International Airport (SAAR) |
| Time | Latitude | Longitude | Altitude | Speed | Heading |
|---|---|---|---|---|---|
| 2026-05-09 01:54 | -31.31761 | -64.21011 | 1612 ft | 0 kts | 208° |
| 2026-05-09 01:56 | -31.31750 | -64.21004 | 1612 ft | 2 kts | 208° |
| 2026-05-09 01:57 | -31.31734 | -64.20994 | 1612 ft | 3 kts | 208° |
| 2026-05-09 01:57 | -31.31716 | -64.20983 | 1612 ft | 2 kts | 208° |
| 2026-05-09 01:57 | -31.31715 | -64.20983 | 1612 ft | 0 kts | 208° |
| 2026-05-09 02:00 | -31.31716 | -64.20983 | 1612 ft | 0 kts | 208° |
| 2026-05-09 02:01 | -31.31720 | -64.20985 | 1612 ft | 2 kts | 208° |
| 2026-05-09 02:02 | -31.31728 | -64.20999 | 1612 ft | 3 kts | 264° |
| 2026-05-09 02:02 | -31.31723 | -64.21013 | 1612 ft | 1 kts | 314° |
| 2026-05-09 02:02 | -31.31722 | -64.21014 | 1612 ft | 0 kts | 316° |
| 2026-05-09 02:05 | -31.31720 | -64.21017 | 1612 ft | 7 kts | 315° |
| 2026-05-09 02:05 | -31.31701 | -64.21060 | 1612 ft | 4 kts | 314° |
| 2026-05-09 02:05 | -31.31668 | -64.21065 | 1612 ft | 6 kts | 29° |
| 2026-05-09 02:05 | -31.31641 | -64.21041 | 1612 ft | 4 kts | 38° |
| 2026-05-09 02:06 | -31.31627 | -64.21028 | 1612 ft | 2 kts | 38° |
| 2026-05-09 02:06 | -31.31618 | -64.21018 | 1612 ft | 4 kts | 48° |
| 2026-05-09 02:06 | -31.31591 | -64.20983 | 1612 ft | 8 kts | 43° |
| 2026-05-09 02:07 | -31.31546 | -64.20851 | 1612 ft | 13 kts | 83° |
| 2026-05-09 02:07 | -31.31460 | -64.20824 | 1612 ft | 18 kts | 359° |
| 2026-05-09 02:07 | -31.31307 | -64.20826 | 1612 ft | 25 kts | 359° |
| 2026-05-09 02:07 | -31.31119 | -64.20828 | 1612 ft | 29 kts | 359° |
| 2026-05-09 02:08 | -31.30927 | -64.20830 | 1612 ft | 24 kts | 359° |
| 2026-05-09 02:08 | -31.30759 | -64.20832 | 1612 ft | 25 kts | 359° |
| 2026-05-09 02:08 | -31.30627 | -64.20834 | 1612 ft | 19 kts | 359° |
| 2026-05-09 02:08 | -31.30497 | -64.20835 | 1612 ft | 19 kts | 359° |
| 2026-05-09 02:09 | -31.30368 | -64.20836 | 1612 ft | 19 kts | 359° |
| 2026-05-09 02:09 | -31.30272 | -64.20839 | 1612 ft | 7 kts | 290° |
| 2026-05-09 02:09 | -31.30298 | -64.20852 | 1612 ft | 2 kts | 167° |
| 2026-05-09 02:09 | -31.30307 | -64.20852 | 1612 ft | 0 kts | 186° |
| 2026-05-09 02:10 | -31.30328 | -64.20845 | 1612 ft | 0 kts | 169° |
| 2026-05-09 02:10 | -31.30329 | -64.20845 | 1612 ft | 0 kts | 169° |
| 2026-05-09 02:11 | -31.30507 | -64.20837 | 1612 ft | 63 kts | 179° |
| 2026-05-09 02:11 | -31.31154 | -64.20812 | 1614 ft | 119 kts | 178° |
| 2026-05-09 02:11 | -31.31982 | -64.20775 | 2043 ft | 120 kts | 177° |
| 2026-05-09 02:12 | -31.32876 | -64.20702 | 2336 ft | 141 kts | 171° |
| 2026-05-09 02:12 | -31.33844 | -64.20429 | 2917 ft | 136 kts | 162° |
| 2026-05-09 02:12 | -31.34669 | -64.20060 | 3689 ft | 122 kts | 156° |
| 2026-05-09 02:12 | -31.35423 | -64.19588 | 4159 ft | 132 kts | 151° |
| 2026-05-09 02:13 | -31.36208 | -64.18896 | 4477 ft | 152 kts | 142° |
| 2026-05-09 02:13 | -31.36974 | -64.17923 | 4787 ft | 172 kts | 132° |
| 2026-05-09 02:13 | -31.37623 | -64.16660 | 5083 ft | 191 kts | 119° |
| 2026-05-09 02:13 | -31.38131 | -64.15152 | 5376 ft | 206 kts | 112° |
| 2026-05-09 02:14 | -31.38612 | -64.13521 | 5663 ft | 218 kts | 111° |
| 2026-05-09 02:14 | -31.39141 | -64.11807 | 5949 ft | 229 kts | 113° |
| 2026-05-09 02:14 | -31.39801 | -64.10090 | 6230 ft | 237 kts | 118° |
| 2026-05-09 02:14 | -31.40604 | -64.08363 | 6512 ft | 243 kts | 122° |
| 2026-05-09 02:15 | -31.41493 | -64.06683 | 6785 ft | 241 kts | 124° |
| 2026-05-09 02:15 | -31.42421 | -64.05063 | 7056 ft | 237 kts | 127° |
| 2026-05-09 02:15 | -31.43354 | -64.03519 | 7323 ft | 234 kts | 128° |
| 2026-05-09 02:15 | -31.44310 | -64.01992 | 7594 ft | 232 kts | 129° |
| 2026-05-09 02:16 | -31.45277 | -64.00488 | 7866 ft | 230 kts | 130° |
| 2026-05-09 02:16 | -31.46250 | -63.99002 | 8138 ft | 229 kts | 130° |
| 2026-05-09 02:16 | -31.47219 | -63.97549 | 8440 ft | 224 kts | 127° |
| 2026-05-09 02:16 | -31.48174 | -63.96127 | 8711 ft | 220 kts | 127° |
| 2026-05-09 02:17 | -31.49119 | -63.94723 | 8984 ft | 217 kts | 128° |
| 2026-05-09 02:17 | -31.50053 | -63.93341 | 9256 ft | 215 kts | 128° |
| 2026-05-09 02:17 | -31.50981 | -63.91973 | 9528 ft | 213 kts | 128° |
| 2026-05-09 02:17 | -31.51976 | -63.90693 | 9800 ft | 212 kts | 136° |
| 2026-05-09 02:18 | -31.53095 | -63.89574 | 10075 ft | 211 kts | 140° |
| 2026-05-09 02:18 | -31.54235 | -63.88501 | 10348 ft | 209 kts | 141° |
| 2026-05-09 02:18 | -31.55371 | -63.87440 | 10621 ft | 208 kts | 141° |
| 2026-05-09 02:18 | -31.56499 | -63.86385 | 10894 ft | 207 kts | 140° |
| 2026-05-09 02:19 | -31.57618 | -63.85334 | 11167 ft | 206 kts | 140° |
| 2026-05-09 02:19 | -31.58731 | -63.84285 | 11441 ft | 204 kts | 140° |
| 2026-05-09 02:19 | -31.59835 | -63.83240 | 11714 ft | 203 kts | 139° |
| 2026-05-09 02:19 | -31.60919 | -63.82208 | 11985 ft | 202 kts | 139° |
| 2026-05-09 02:20 | -31.62008 | -63.81167 | 12259 ft | 201 kts | 139° |
| 2026-05-09 02:20 | -31.63090 | -63.80129 | 12533 ft | 200 kts | 139° |
| 2026-05-09 02:20 | -31.64162 | -63.79096 | 12806 ft | 199 kts | 139° |
| 2026-05-09 02:20 | -31.65224 | -63.78065 | 13076 ft | 198 kts | 140° |
| 2026-05-09 02:21 | -31.66294 | -63.77023 | 13355 ft | 202 kts | 139° |
| 2026-05-09 02:21 | -31.67403 | -63.75939 | 13644 ft | 212 kts | 139° |
| 2026-05-09 02:21 | -31.68544 | -63.74818 | 13927 ft | 220 kts | 139° |
| 2026-05-09 02:21 | -31.69736 | -63.73643 | 14210 ft | 227 kts | 138° |
| 2026-05-09 02:22 | -31.70959 | -63.72430 | 14492 ft | 232 kts | 138° |
| 2026-05-09 02:22 | -31.72202 | -63.71190 | 14771 ft | 236 kts | 138° |
| 2026-05-09 02:22 | -31.73460 | -63.69929 | 15049 ft | 240 kts | 138° |
| 2026-05-09 02:22 | -31.74735 | -63.68644 | 15326 ft | 243 kts | 138° |
| 2026-05-09 02:23 | -31.76019 | -63.67344 | 15604 ft | 245 kts | 138° |
| 2026-05-09 02:23 | -31.77315 | -63.66023 | 15881 ft | 247 kts | 137° |
| 2026-05-09 02:23 | -31.78615 | -63.64692 | 16158 ft | 248 kts | 137° |
| 2026-05-09 02:23 | -31.79916 | -63.63352 | 16433 ft | 250 kts | 137° |
| 2026-05-09 02:24 | -31.81224 | -63.61996 | 16709 ft | 251 kts | 137° |
| 2026-05-09 02:24 | -31.82539 | -63.60626 | 16885 ft | 256 kts | 136° |
| 2026-05-09 02:24 | -31.83900 | -63.59198 | 16928 ft | 267 kts | 136° |
| 2026-05-09 02:24 | -31.85310 | -63.57707 | 16934 ft | 279 kts | 136° |
| 2026-05-09 02:25 | -31.86758 | -63.56167 | 16934 ft | 290 kts | 136° |
| 2026-05-09 02:25 | -31.88273 | -63.54545 | 16933 ft | 298 kts | 136° |
| 2026-05-09 02:25 | -31.89828 | -63.52870 | 16933 ft | 306 kts | 135° |
| 2026-05-09 02:25 | -31.91406 | -63.51157 | 16932 ft | 311 kts | 135° |
| 2026-05-09 02:26 | -31.93003 | -63.49412 | 16933 ft | 316 kts | 135° |
| 2026-05-09 02:26 | -31.94616 | -63.47636 | 16933 ft | 319 kts | 135° |
| 2026-05-09 02:26 | -31.96241 | -63.45832 | 16934 ft | 322 kts | 134° |
| 2026-05-09 02:26 | -31.97869 | -63.44011 | 16934 ft | 324 kts | 134° |
| 2026-05-09 02:27 | -31.99499 | -63.42173 | 16934 ft | 325 kts | 134° |
| 2026-05-09 02:27 | -32.01129 | -63.40318 | 16933 ft | 327 kts | 134° |
| 2026-05-09 02:27 | -32.02760 | -63.38447 | 16934 ft | 327 kts | 133° |
| 2026-05-09 02:27 | -32.04387 | -63.36565 | 16934 ft | 328 kts | 133° |
| 2026-05-09 02:28 | -32.05461 | -63.35313 | 16934 ft | 328 kts | 133° |
| 2026-05-09 02:28 | -32.07606 | -63.32790 | 16934 ft | 328 kts | 133° |
| 2026-05-09 02:28 | -32.08689 | -63.31504 | 16934 ft | 324 kts | 133° |
| 2026-05-09 02:28 | -32.10253 | -63.29636 | 16932 ft | 315 kts | 132° |
| 2026-05-09 02:29 | -32.11765 | -63.27814 | 16931 ft | 307 kts | 132° |
| 2026-05-09 02:29 | -32.13239 | -63.26020 | 16929 ft | 301 kts | 132° |
| 2026-05-09 02:29 | -32.14676 | -63.24254 | 16928 ft | 296 kts | 132° |
| 2026-05-09 02:29 | -32.16070 | -63.22525 | 16928 ft | 292 kts | 132° |
| 2026-05-09 02:30 | -32.17457 | -63.20787 | 16924 ft | 289 kts | 133° |
| 2026-05-09 02:30 | -32.18822 | -63.19060 | 16919 ft | 286 kts | 133° |
| 2026-05-09 02:30 | -32.20169 | -63.17343 | 16917 ft | 283 kts | 133° |
| 2026-05-09 02:30 | -32.21494 | -63.15639 | 16917 ft | 280 kts | 132° |
| 2026-05-09 02:31 | -32.22803 | -63.13939 | 16918 ft | 278 kts | 132° |
| 2026-05-09 02:31 | -32.24091 | -63.12253 | 16918 ft | 275 kts | 131° |
| 2026-05-09 02:31 | -32.25364 | -63.10572 | 16918 ft | 273 kts | 131° |
| 2026-05-09 02:31 | -32.26620 | -63.08896 | 16918 ft | 271 kts | 131° |
| 2026-05-09 02:32 | -32.27861 | -63.07227 | 16918 ft | 269 kts | 131° |
| 2026-05-09 02:32 | -32.29085 | -63.05566 | 16919 ft | 267 kts | 130° |
| 2026-05-09 02:32 | -32.30296 | -63.03909 | 16919 ft | 265 kts | 130° |